Time;durP1;ratioP1;P1;durP2;ratioP2;P2;SDS_P1;SDS_P2;PMS_P1;PMS_P2;Temp;Humidity;BMP_temperature;BMP_pressure;BME280_temperature;BME280_humidity;BME280_pressure;Samples;Min_cycle;Max_cycle;Signal;HPM_P1;HPM_P2
2024/04/09 00:00:55;;;;;;;12.20;3.37;;;19.70;99.90;;;;;;5301095;26;20358;-74
2024/04/09 00:03:21;;;;;;;8.57;4.90;;;19.80;99.90;;;;;;5300506;26;20303;-74
2024/04/09 00:05:48;;;;;;;6.93;2.90;;;19.70;99.90;;;;;;5299754;26;20574;-73
2024/04/09 00:08:16;;;;;;;9.00;3.00;;;19.70;99.90;;;;;;5302364;26;21104;-75
2024/04/09 00:10:43;;;;;;;7.43;2.77;;;19.80;99.90;;;;;;5301895;26;20535;-74
2024/04/09 00:13:09;;;;;;;5.13;2.77;;;19.60;99.90;;;;;;5300016;26;20491;-72
2024/04/09 00:15:35;;;;;;;8.60;3.10;;;19.70;99.90;;;;;;5293697;26;21415;-72
2024/04/09 00:18:17;;;;;;;6.73;3.00;;;19.50;99.90;;;;;;5295277;26;20495;-73
2024/04/09 00:20:44;;;;;;;8.97;2.90;;;19.20;99.90;;;;;;5296719;26;20374;-72
2024/04/09 00:23:16;;;;;;;13.93;3.60;;;19.10;99.90;;;;;;5296324;26;20849;-73
2024/04/09 00:25:44;;;;;;;9.03;2.73;;;19.20;99.90;;;;;;5291226;26;20478;-72
2024/04/09 00:28:11;;;;;;;3.30;2.77;;;19.40;99.90;;;;;;5289159;26;20536;-72
2024/04/09 00:30:39;;;;;;;7.70;2.93;;;19.50;99.90;;;;;;5295324;26;20491;-73
2024/04/09 00:33:07;;;;;;;4.10;2.50;;;19.60;99.90;;;;;;5294130;26;20491;-72
2024/04/09 00:35:33;;;;;;;5.40;2.70;;;19.60;99.90;;;;;;5294331;26;20487;-73
2024/04/09 00:37:59;;;;;;;9.87;2.83;;;19.60;99.90;;;;;;5295701;26;20596;-73
2024/04/09 00:40:26;;;;;;;2.30;2.13;;;19.60;99.90;;;;;;5294876;26;20272;-73
2024/04/09 00:42:57;;;;;;;5.90;3.77;;;19.60;99.90;;;;;;5293083;26;20491;-73
2024/04/09 00:45:23;;;;;;;5.47;2.57;;;19.60;99.90;;;;;;5265153;26;20495;-73
2024/04/09 00:47:56;;;;;;;6.23;2.77;;;19.60;99.90;;;;;;5264476;26;20463;-73
2024/04/09 00:50:23;;;;;;;5.77;2.83;;;19.50;99.90;;;;;;5294882;26;20583;-72
2024/04/09 00:52:51;;;;;;;5.67;3.10;;;19.60;99.90;;;;;;5289911;26;20479;-74
2024/04/09 00:55:24;;;;;;;12.07;3.60;;;19.60;99.90;;;;;;5294813;26;20555;-73
2024/04/09 00:57:52;;;;;;;6.17;2.53;;;19.60;99.90;;;;;;5291397;26;20635;-73
2024/04/09 01:00:19;;;;;;;6.50;2.43;;;19.60;99.90;;;;;;5293491;26;20487;-73
2024/04/09 01:02:49;;;;;;;6.33;3.10;;;19.50;99.90;;;;;;5288693;26;20531;-74
2024/04/09 01:05:16;;;;;;;6.17;2.90;;;19.50;99.90;;;;;;5294469;26;20968;-73
2024/04/09 01:07:43;;;;;;;4.83;2.93;;;19.50;99.90;;;;;;5291834;26;20491;-74
2024/04/09 01:10:09;;;;;;;5.10;4.70;;;19.50;99.90;;;;;;5296400;26;20539;-74
2024/04/09 01:12:34;;;;;;;15.43;3.20;;;19.40;99.90;;;;;;5294470;26;20486;-73
2024/04/09 01:15:00;;;;;;;8.23;3.10;;;19.40;99.90;;;;;;5298337;26;20264;-74
2024/04/09 01:17:28;;;;;;;7.30;3.27;;;19.40;99.90;;;;;;5294323;26;20328;-73
2024/04/09 01:19:54;;;;;;;5.87;2.83;;;19.40;99.90;;;;;;5292270;26;20280;-73
2024/04/09 01:22:20;;;;;;;8.03;3.07;;;19.30;99.90;;;;;;5256606;27;20616;-74
2024/04/09 01:24:47;;;;;;;10.23;3.03;;;19.40;99.90;;;;;;5263514;26;20502;-73
2024/04/09 01:27:14;;;;;;;12.33;3.53;;;19.30;99.90;;;;;;5261330;27;21014;-73
2024/04/09 01:29:43;;;;;;;6.73;3.20;;;19.30;99.90;;;;;;5265698;26;20572;-72
2024/04/09 01:32:10;;;;;;;9.50;3.30;;;19.30;99.90;;;;;;5283226;26;21105;-74
2024/04/09 01:34:36;;;;;;;6.73;4.13;;;19.20;99.90;;;;;;5259381;26;20477;-73
2024/04/09 01:37:02;;;;;;;7.27;3.43;;;19.20;99.90;;;;;;5250810;27;20611;-71
2024/04/09 01:39:28;;;;;;;3.93;2.70;;;19.20;99.90;;;;;;5287950;26;20280;-74
2024/04/09 01:41:55;;;;;;;6.40;3.57;;;19.10;99.90;;;;;;5287796;26;20482;-73
2024/04/09 01:44:21;;;;;;;8.40;2.70;;;19.10;99.90;;;;;;5326061;26;20272;-73
2024/04/09 01:46:48;;;;;;;10.07;3.90;;;19.00;99.90;;;;;;5288245;26;20588;-74
2024/04/09 01:49:21;;;;;;;4.70;2.37;;;19.00;99.90;;;;;;5290987;26;20260;-74
2024/04/09 01:51:46;;;;;;;10.97;3.20;;;19.00;99.90;;;;;;5293469;26;20495;-74
2024/04/09 01:54:12;;;;;;;11.90;3.30;;;19.00;99.90;;;;;;5294860;26;20494;-74
2024/04/09 01:56:38;;;;;;;10.77;3.17;;;19.00;99.90;;;;;;5288983;26;20261;-76
2024/04/09 01:59:05;;;;;;;8.70;3.80;;;18.90;99.90;;;;;;5294342;26;20779;-74
2024/04/09 02:01:31;;;;;;;11.20;3.30;;;18.90;99.90;;;;;;5294289;26;20586;-72
2024/04/09 02:03:57;;;;;;;11.10;3.40;;;18.90;99.90;;;;;;5298633;26;20818;-73
2024/04/09 02:06:23;;;;;;;5.90;4.40;;;18.90;99.90;;;;;;5288701;26;20256;-73
2024/04/09 02:08:53;;;;;;;7.33;3.53;;;18.90;99.90;;;;;;5295671;26;20311;-74
2024/04/09 02:11:22;;;;;;;7.10;3.20;;;18.90;99.90;;;;;;5294675;26;20620;-73
2024/04/09 02:13:48;;;;;;;6.77;2.50;;;18.90;99.90;;;;;;5294238;26;20479;-73
2024/04/09 02:16:16;;;;;;;3.80;2.57;;;18.90;99.90;;;;;;5290919;26;20570;-72
2024/04/09 02:18:42;;;;;;;6.80;4.20;;;18.90;99.90;;;;;;5264031;26;20554;-72
2024/04/09 02:21:09;;;;;;;4.63;2.87;;;18.80;99.90;;;;;;5271548;26;20489;-73
2024/04/09 02:23:37;;;;;;;4.33;2.83;;;18.80;99.90;;;;;;5257246;26;20539;-74
2024/04/09 02:26:03;;;;;;;9.07;4.50;;;18.80;99.90;;;;;;5263059;27;20500;-72
2024/04/09 02:28:29;;;;;;;8.80;3.80;;;18.80;99.90;;;;;;5301819;26;20919;-73
2024/04/09 02:30:56;;;;;;;7.20;3.30;;;18.80;99.90;;;;;;5298449;26;20295;-73
2024/04/09 02:33:23;;;;;;;7.77;3.50;;;18.80;99.90;;;;;;5297211;26;20467;-73
2024/04/09 02:35:58;;;;;;;11.00;4.87;;;18.80;99.90;;;;;;5287167;26;21300;-73
2024/04/09 02:38:25;;;;;;;7.87;2.73;;;18.80;99.90;;;;;;5259398;27;20558;-73
2024/04/09 02:40:51;;;;;;;7.50;3.20;;;18.70;99.90;;;;;;5286997;26;20487;-74
2024/04/09 02:43:17;;;;;;;7.73;4.20;;;18.70;99.90;;;;;;5295769;26;20546;-73
2024/04/09 02:45:43;;;;;;;14.00;3.47;;;18.70;99.90;;;;;;5293435;26;20268;-72
2024/04/09 02:48:08;;;;;;;5.87;2.43;;;18.60;99.90;;;;;;5323820;26;20375;-72
2024/04/09 02:50:34;;;;;;;7.53;2.80;;;18.50;99.90;;;;;;5288041;26;20276;-72
2024/04/09 02:53:00;;;;;;;9.47;3.27;;;18.50;99.90;;;;;;5294009;26;20684;-72
2024/04/09 02:55:26;;;;;;;8.00;3.70;;;18.40;99.90;;;;;;5292961;26;20384;-74
2024/04/09 02:57:52;;;;;;;11.57;4.20;;;18.40;99.90;;;;;;5293078;26;20628;-73
2024/04/09 03:00:21;;;;;;;10.40;3.20;;;18.40;99.90;;;;;;5297781;26;20318;-75
2024/04/09 03:02:50;;;;;;;13.80;4.40;;;18.40;99.90;;;;;;5289206;26;20878;-72
2024/04/09 03:05:15;;;;;;;19.20;6.10;;;18.40;99.90;;;;;;5318374;26;20479;-73
2024/04/09 03:07:42;;;;;;;10.30;3.60;;;18.40;99.90;;;;;;5291919;26;20474;-71
2024/04/09 03:10:13;;;;;;;10.97;3.83;;;18.40;99.90;;;;;;5298783;26;20694;-73
2024/04/09 03:12:42;;;;;;;15.33;4.03;;;18.40;99.90;;;;;;5289586;26;20521;-73
2024/04/09 03:15:08;;;;;;;12.63;3.77;;;18.30;99.90;;;;;;5296630;26;20535;-74
2024/04/09 03:17:34;;;;;;;12.50;3.23;;;18.30;99.90;;;;;;5292984;26;20503;-73
2024/04/09 03:20:00;;;;;;;16.43;3.67;;;18.40;99.80;;;;;;5294623;26;20498;-73
2024/04/09 03:22:26;;;;;;;8.30;2.80;;;18.40;99.70;;;;;;5290696;26;20256;-71
2024/04/09 03:24:51;;;;;;;21.73;3.67;;;18.40;99.40;;;;;;5291832;26;20267;-74
2024/04/09 03:27:17;;;;;;;20.40;5.03;;;18.40;99.20;;;;;;5295475;26;20303;-71
2024/04/09 03:29:47;;;;;;;12.73;3.43;;;18.40;99.30;;;;;;5295964;26;20294;-74
2024/04/09 03:32:13;;;;;;;10.60;3.70;;;18.40;99.60;;;;;;5291788;26;20324;-72
2024/04/09 03:34:38;;;;;;;11.47;4.30;;;18.40;99.70;;;;;;5290975;26;20873;-72
2024/04/09 03:37:04;;;;;;;15.20;4.13;;;18.30;99.70;;;;;;5294932;26;20264;-72
2024/04/09 03:39:30;;;;;;;11.20;3.97;;;18.40;99.70;;;;;;5295092;26;20324;-72
2024/04/09 03:41:56;;;;;;;10.83;3.60;;;18.40;99.90;;;;;;5294417;26;20276;-71
2024/04/09 03:44:21;;;;;;;12.20;3.40;;;18.40;99.90;;;;;;5294574;26;20264;-73
2024/04/09 03:46:47;;;;;;;12.67;3.07;;;18.40;99.90;;;;;;5293682;26;20314;-73
2024/04/09 03:49:13;;;;;;;8.37;3.30;;;18.40;99.90;;;;;;5299912;26;20311;-72
2024/04/09 03:51:39;;;;;;;5.30;2.77;;;18.40;99.90;;;;;;5262613;26;20487;-73
2024/04/09 03:54:07;;;;;;;6.60;2.77;;;18.40;99.90;;;;;;5297826;26;20318;-72
2024/04/09 03:56:33;;;;;;;8.03;2.93;;;18.40;99.90;;;;;;5320732;26;20264;-72
2024/04/09 03:58:59;;;;;;;5.70;2.70;;;18.40;99.90;;;;;;5299730;26;20488;-76
2024/04/09 04:01:24;;;;;;;13.83;2.93;;;18.40;99.90;;;;;;5286548;26;20368;-72
2024/04/09 04:03:50;;;;;;;8.70;2.97;;;18.40;99.90;;;;;;5291544;26;22467;-72
2024/04/09 04:06:16;;;;;;;7.73;2.90;;;18.40;99.90;;;;;;5298459;26;20762;-73
2024/04/09 04:08:43;;;;;;;5.57;3.17;;;18.40;99.90;;;;;;5291714;26;20771;-74
2024/04/09 04:11:11;;;;;;;6.00;2.43;;;18.30;99.90;;;;;;5294280;26;20507;-73
2024/04/09 04:13:38;;;;;;;8.00;5.10;;;18.30;99.90;;;;;;5292256;26;20872;-73
2024/04/09 04:16:07;;;;;;;6.20;2.03;;;18.30;99.90;;;;;;5268320;26;20494;-73
2024/04/09 04:18:39;;;;;;;5.87;2.30;;;18.20;99.90;;;;;;5292770;26;20662;-73
2024/04/09 04:21:07;;;;;;;3.20;2.00;;;18.30;99.90;;;;;;5300231;26;20546;-73
2024/04/09 04:23:33;;;;;;;6.43;1.97;;;18.30;99.90;;;;;;5317838;26;20562;-74
2024/04/09 04:26:03;;;;;;;3.90;1.77;;;18.30;99.90;;;;;;5296692;26;20914;-72
2024/04/09 04:28:43;;;;;;;3.77;2.10;;;18.30;99.90;;;;;;5295692;26;20366;-73
2024/04/09 04:31:09;;;;;;;5.00;2.03;;;18.30;99.90;;;;;;5295053;26;20558;-73
2024/04/09 04:33:36;;;;;;;5.30;1.87;;;18.30;99.90;;;;;;5290109;26;20487;-73
2024/04/09 04:36:02;;;;;;;2.27;1.20;;;18.30;99.90;;;;;;5323426;26;21032;-72
2024/04/09 04:38:28;;;;;;;1.87;1.30;;;18.30;99.90;;;;;;5298168;26;20575;-70
2024/04/09 04:40:54;;;;;;;4.10;1.67;;;18.30;99.90;;;;;;5290409;26;20362;-74
2024/04/09 04:43:19;;;;;;;2.50;1.87;;;18.20;99.90;;;;;;5294923;26;20300;-73
2024/04/09 04:45:46;;;;;;;2.80;1.50;;;18.20;99.90;;;;;;5292944;26;20538;-72
2024/04/09 04:48:12;;;;;;;6.90;1.77;;;18.10;99.90;;;;;;5299016;26;20303;-72
2024/04/09 04:50:38;;;;;;;3.30;1.73;;;18.10;99.90;;;;;;5293888;26;20546;-73
2024/04/09 04:53:05;;;;;;;4.90;1.83;;;18.20;99.90;;;;;;5296263;26;20483;-73
2024/04/09 04:55:32;;;;;;;3.83;1.80;;;18.20;99.90;;;;;;5299822;26;20572;-69
2024/04/09 04:57:59;;;;;;;3.77;2.03;;;18.20;99.90;;;;;;5270888;26;20509;-73
2024/04/09 05:00:24;;;;;;;6.50;1.70;;;18.20;99.90;;;;;;5294700;26;20511;-71
2024/04/09 05:02:50;;;;;;;4.17;1.60;;;18.10;99.90;;;;;;5258770;26;20617;-73
2024/04/09 05:05:16;;;;;;;3.10;1.80;;;17.90;99.90;;;;;;5280875;26;20617;-73
2024/04/09 05:07:42;;;;;;;6.93;1.70;;;17.90;99.90;;;;;;5268320;26;20308;-74
2024/04/09 05:10:14;;;;;;;5.53;1.70;;;17.90;99.90;;;;;;5286411;26;20306;-73
2024/04/09 05:12:40;;;;;;;3.50;1.60;;;18.00;99.90;;;;;;5292936;26;20495;-75
2024/04/09 05:15:09;;;;;;;2.70;1.40;;;18.00;99.90;;;;;;5268167;26;20875;-74
2024/04/09 05:17:35;;;;;;;2.30;1.00;;;18.10;99.90;;;;;;5294029;26;20637;-72
2024/04/09 05:20:03;;;;;;;2.50;1.30;;;18.00;99.90;;;;;;5322404;26;20511;-72
2024/04/09 05:22:29;;;;;;;2.70;1.30;;;18.00;99.90;;;;;;5295735;26;20532;-72
2024/04/09 05:24:55;;;;;;;3.07;1.63;;;17.90;99.90;;;;;;5296770;26;21070;-72
2024/04/09 05:27:21;;;;;;;2.33;1.33;;;17.90;99.90;;;;;;5290514;26;20502;-75
2024/04/09 05:29:47;;;;;;;1.10;1.00;;;17.90;99.90;;;;;;5291394;26;20298;-72
2024/04/09 05:32:14;;;;;;;1.40;1.20;;;17.80;99.90;;;;;;5295772;26;20591;-73
2024/04/09 05:34:40;;;;;;;5.17;1.50;;;17.80;99.90;;;;;;5294034;26;20618;-77
2024/04/09 05:37:06;;;;;;;2.30;1.07;;;17.70;99.90;;;;;;5321025;26;20984;-74
2024/04/09 05:39:32;;;;;;;4.90;1.50;;;17.80;99.90;;;;;;5289586;26;20268;-73
2024/04/09 05:41:57;;;;;;;2.83;1.10;;;17.80;99.90;;;;;;5293461;26;20279;-72
2024/04/09 05:44:23;;;;;;;1.57;1.40;;;17.90;99.90;;;;;;5292590;26;20260;-73
2024/04/09 05:46:49;;;;;;;2.50;1.27;;;17.70;99.90;;;;;;5313200;26;20264;-71
2024/04/09 05:49:17;;;;;;;3.80;1.40;;;17.70;99.90;;;;;;5293347;26;20580;-73
2024/04/09 05:51:43;;;;;;;1.30;1.07;;;17.70;99.90;;;;;;5290049;26;20326;-73
2024/04/09 05:54:09;;;;;;;3.50;1.10;;;17.60;99.90;;;;;;5291067;26;20498;-73
2024/04/09 05:56:35;;;;;;;4.77;1.80;;;17.40;99.90;;;;;;5290418;26;20268;-74
2024/04/09 05:59:00;;;;;;;2.17;1.60;;;17.40;99.90;;;;;;5294026;26;20307;-71
2024/04/09 06:01:26;;;;;;;1.37;1.20;;;17.40;99.90;;;;;;5290097;26;20308;-69
2024/04/09 06:03:52;;;;;;;5.20;1.50;;;17.40;99.90;;;;;;5288887;26;20275;-72
2024/04/09 06:06:17;;;;;;;1.47;1.20;;;17.50;99.90;;;;;;5279254;26;20783;-74
2024/04/09 06:08:43;;;;;;;3.07;1.60;;;17.40;99.90;;;;;;5271651;26;20817;-75
2024/04/09 06:11:08;;;;;;;4.00;0.93;;;17.40;99.90;;;;;;5268684;26;20806;-73
2024/04/09 06:13:34;;;;;;;1.60;1.40;;;17.40;99.90;;;;;;5292013;26;20275;-73
2024/04/09 06:16:00;;;;;;;1.93;1.10;;;17.40;99.90;;;;;;5293730;26;20343;-72
2024/04/09 06:18:26;;;;;;;1.53;0.97;;;17.40;99.90;;;;;;5298834;26;20322;-72
2024/04/09 06:20:51;;;;;;;1.63;0.97;;;17.20;99.90;;;;;;5287395;26;20276;-75
2024/04/09 06:23:17;;;;;;;1.23;1.10;;;17.20;99.90;;;;;;5294055;26;20651;-72
2024/04/09 06:25:53;;;;;;;1.33;0.60;;;17.00;99.90;;;;;;5264562;26;20306;-73
2024/04/09 06:28:19;;;;;;;4.23;0.90;;;17.00;99.90;;;;;;5266462;26;20298;-73
2024/04/09 06:30:44;;;;;;;1.87;1.00;;;16.90;99.90;;;;;;5291258;26;20940;-72
2024/04/09 06:33:11;;;;;;;1.17;0.87;;;17.00;99.90;;;;;;5272422;26;20268;-72
2024/04/09 06:35:38;;;;;;;1.87;0.67;;;17.00;99.90;;;;;;5314444;26;20772;-72
2024/04/09 06:38:04;;;;;;;0.90;0.70;;;17.00;99.90;;;;;;5294249;26;20495;-71
2024/04/09 06:40:31;;;;;;;1.10;1.00;;;17.00;99.90;;;;;;5296671;26;20549;-73
2024/04/09 06:43:00;;;;;;;1.00;0.60;;;17.00;99.90;;;;;;5289469;26;20521;-72
2024/04/09 06:45:26;;;;;;;0.80;0.60;;;17.00;99.90;;;;;;5291216;26;20855;-73
2024/04/09 06:47:51;;;;;;;1.13;0.77;;;17.10;99.90;;;;;;5289020;26;20487;-72
2024/04/09 06:50:17;;;;;;;1.27;0.80;;;16.90;99.90;;;;;;5292323;26;20265;-75
2024/04/09 06:52:43;;;;;;;1.67;1.07;;;16.90;99.90;;;;;;5289739;26;20348;-73
2024/04/09 06:55:09;;;;;;;0.70;0.70;;;16.80;99.90;;;;;;5291671;26;20271;-74
2024/04/09 06:57:36;;;;;;;0.70;0.60;;;16.70;99.90;;;;;;5289494;26;20302;-73
2024/04/09 07:00:02;;;;;;;0.80;0.60;;;16.80;99.90;;;;;;5289866;26;21005;-71
2024/04/09 07:02:27;;;;;;;1.03;0.67;;;16.80;99.90;;;;;;5293473;26;20550;-69
2024/04/09 07:04:53;;;;;;;0.50;0.40;;;16.70;99.90;;;;;;5293877;26;20479;-72
2024/04/09 07:07:19;;;;;;;0.50;0.40;;;16.70;99.90;;;;;;5263105;26;20307;-73
2024/04/09 07:09:44;;;;;;;1.33;0.67;;;16.60;99.90;;;;;;5288547;26;20720;-73
2024/04/09 07:12:10;;;;;;;0.57;0.50;;;16.50;99.90;;;;;;5290143;26;20272;-72
2024/04/09 07:14:36;;;;;;;1.53;0.43;;;16.50;99.90;;;;;;5291795;26;20272;-76
2024/04/09 07:17:02;;;;;;;0.80;0.70;;;16.50;99.90;;;;;;5293764;26;20411;-72
2024/04/09 07:19:28;;;;;;;0.50;0.50;;;16.40;99.90;;;;;;5296471;26;20499;-72
2024/04/09 07:21:54;;;;;;;0.60;0.50;;;16.30;99.90;;;;;;5296767;26;20581;-73
2024/04/09 07:24:19;;;;;;;1.13;0.50;;;16.30;99.90;;;;;;5293310;26;20290;-73
2024/04/09 07:26:45;;;;;;;0.70;0.70;;;16.10;99.90;;;;;;5292858;26;20847;-72
2024/04/09 07:29:11;;;;;;;0.60;0.43;;;16.10;99.90;;;;;;5319769;26;20792;-71
2024/04/09 07:31:36;;;;;;;0.47;0.43;;;15.90;99.90;;;;;;5287132;26;20272;-72
2024/04/09 07:34:03;;;;;;;0.40;0.40;;;15.50;99.90;;;;;;5296392;26;20279;-70
2024/04/09 07:36:29;;;;;;;1.50;0.50;;;15.30;99.90;;;;;;5292788;26;20268;-74
2024/04/09 07:38:56;;;;;;;1.47;0.80;;;15.10;99.90;;;;;;5291549;26;21084;-72
2024/04/09 07:41:25;;;;;;;0.67;0.47;;;14.70;99.90;;;;;;5292309;26;20784;-72
2024/04/09 07:43:52;;;;;;;0.50;0.50;;;14.70;99.90;;;;;;5289639;26;20566;-74
2024/04/09 07:46:18;;;;;;;0.50;0.50;;;14.60;99.90;;;;;;5292823;26;20899;-73
2024/04/09 07:48:44;;;;;;;1.10;0.40;;;14.50;99.90;;;;;;5286817;26;20495;-74
2024/04/09 07:51:11;;;;;;;1.00;0.40;;;14.50;99.90;;;;;;5289338;26;20570;-75
2024/04/09 07:53:38;;;;;;;0.87;0.47;;;14.50;99.90;;;;;;5289228;26;20260;-72
2024/04/09 07:56:04;;;;;;;0.40;0.40;;;14.50;99.90;;;;;;5290286;26;20565;-75
2024/04/09 07:58:30;;;;;;;3.17;0.70;;;14.70;99.90;;;;;;5313676;26;20523;-75
2024/04/09 08:00:56;;;;;;;2.00;0.63;;;14.70;99.90;;;;;;5285755;26;21017;-73
2024/04/09 08:03:22;;;;;;;0.40;0.30;;;14.70;99.90;;;;;;5288550;26;20268;-72
2024/04/09 08:05:47;;;;;;;0.80;0.70;;;14.80;99.90;;;;;;5292232;26;20314;-73
2024/04/09 08:08:13;;;;;;;2.27;0.57;;;14.90;99.90;;;;;;5297652;26;20268;-72
2024/04/09 08:10:40;;;;;;;0.60;0.40;;;15.00;99.90;;;;;;5290586;26;20676;-71
2024/04/09 08:13:06;;;;;;;1.17;0.60;;;15.00;99.90;;;;;;5286880;26;20339;-75
2024/04/09 08:15:31;;;;;;;0.70;0.70;;;14.90;99.90;;;;;;5286579;26;20543;-72
2024/04/09 08:17:57;;;;;;;1.73;0.40;;;14.90;99.90;;;;;;5281785;26;20362;-73
2024/04/09 08:20:22;;;;;;;0.40;0.40;;;15.00;99.90;;;;;;5284222;26;20264;-73
2024/04/09 08:22:49;;;;;;;0.63;0.63;;;14.80;99.90;;;;;;5278319;26;20280;-74
2024/04/09 08:25:15;;;;;;;0.50;0.50;;;14.70;99.90;;;;;;5294067;26;20806;-71
2024/04/09 08:27:42;;;;;;;0.50;0.50;;;14.80;99.90;;;;;;5311557;26;20902;-74
2024/04/09 08:30:17;;;;;;;0.50;0.50;;;14.80;99.90;;;;;;5287057;26;20502;-76
2024/04/09 08:32:44;;;;;;;0.50;0.50;;;14.90;99.90;;;;;;5285465;26;20542;-72
2024/04/09 08:35:13;;;;;;;1.37;0.43;;;14.80;99.90;;;;;;5285757;26;20860;-71
2024/04/09 08:37:42;;;;;;;1.03;0.70;;;14.80;99.90;;;;;;5282497;26;21129;-72
2024/04/09 08:40:09;;;;;;;1.47;0.50;;;14.70;99.90;;;;;;5284268;26;20495;-74
2024/04/09 08:42:38;;;;;;;1.60;0.70;;;14.40;99.90;;;;;;5280532;26;21068;-73
2024/04/09 08:45:14;;;;;;;0.50;0.40;;;14.40;99.90;;;;;;5287632;26;21294;-73
2024/04/09 08:47:41;;;;;;;1.00;0.50;;;14.30;99.90;;;;;;5279157;26;20606;-73
2024/04/09 08:50:07;;;;;;;0.70;0.50;;;14.30;99.90;;;;;;5312713;26;20499;-71
2024/04/09 08:52:33;;;;;;;2.63;0.60;;;14.20;99.90;;;;;;5281699;26;20604;-74
2024/04/09 08:55:00;;;;;;;6.73;0.67;;;14.20;99.90;;;;;;5255737;26;20499;-75
2024/04/09 08:57:30;;;;;;;0.90;0.50;;;14.10;99.90;;;;;;5283703;26;20671;-71
2024/04/09 08:59:57;;;;;;;0.80;0.80;;;14.00;99.90;;;;;;5282244;26;20559;-73
2024/04/09 09:02:23;;;;;;;2.10;0.60;;;14.00;99.90;;;;;;5286876;26;20593;-74
2024/04/09 09:04:49;;;;;;;0.70;0.53;;;14.00;99.90;;;;;;5280884;26;20518;-75
2024/04/09 09:07:17;;;;;;;1.27;0.80;;;14.00;99.90;;;;;;5286499;26;20264;-72
2024/04/09 09:09:44;;;;;;;2.00;0.50;;;13.80;99.90;;;;;;5282262;26;20626;-72
2024/04/09 09:12:10;;;;;;;0.70;0.70;;;13.90;99.90;;;;;;5285600;26;20555;-70
2024/04/09 09:14:37;;;;;;;0.63;0.63;;;13.90;99.90;;;;;;5273717;26;20488;-71
2024/04/09 09:17:09;;;;;;;1.60;0.60;;;14.00;99.90;;;;;;5285099;26;20502;-74
2024/04/09 09:19:36;;;;;;;0.80;0.50;;;14.00;99.90;;;;;;5279951;26;20499;-73
2024/04/09 09:22:08;;;;;;;2.73;0.50;;;13.90;99.90;;;;;;5284076;26;20576;-71
2024/04/09 09:24:34;;;;;;;0.70;0.53;;;13.80;99.90;;;;;;5309393;26;21040;-72
2024/04/09 09:27:07;;;;;;;0.80;0.80;;;13.70;99.90;;;;;;5284907;26;20545;-73
2024/04/09 09:29:34;;;;;;;2.30;1.00;;;13.70;99.90;;;;;;5280052;26;20314;-73
2024/04/09 09:32:00;;;;;;;1.03;0.70;;;13.50;99.90;;;;;;5285620;26;20662;-74
2024/04/09 09:34:42;;;;;;;6.63;0.83;;;13.50;99.90;;;;;;5284143;26;20510;-73
2024/04/09 09:37:09;;;;;;;0.50;0.40;;;13.20;99.90;;;;;;5281040;26;20541;-72
2024/04/09 09:39:36;;;;;;;0.87;0.60;;;13.20;99.90;;;;;;5306237;26;20522;-72
2024/04/09 09:42:04;;;;;;;0.60;0.60;;;13.30;99.90;;;;;;5284427;26;20603;-73
2024/04/09 09:44:34;;;;;;;2.23;0.80;;;13.20;99.90;;;;;;5309465;26;21044;-74
2024/04/09 09:47:00;;;;;;;5.73;1.07;;;13.20;99.90;;;;;;5269163;26;20497;-74
2024/04/09 09:49:27;;;;;;;2.17;0.70;;;13.20;99.90;;;;;;5268449;26;20503;-74
2024/04/09 09:51:55;;;;;;;1.07;0.60;;;13.20;99.90;;;;;;5277836;26;20483;-74
2024/04/09 09:54:22;;;;;;;0.80;0.50;;;13.20;99.90;;;;;;5289809;26;20559;-72
2024/04/09 09:56:51;;;;;;;4.03;0.70;;;13.20;99.90;;;;;;5284819;26;20495;-73
2024/04/09 09:59:19;;;;;;;0.93;0.60;;;13.30;99.90;;;;;;5292829;26;20511;-72
2024/04/09 10:01:48;;;;;;;0.80;0.80;;;13.10;99.90;;;;;;5290511;26;20542;-72
2024/04/09 10:04:23;;;;;;;0.70;0.60;;;13.00;99.90;;;;;;5294104;26;20600;-71
2024/04/09 10:07:04;;;;;;;1.13;0.63;;;12.90;99.90;;;;;;5288348;26;20510;-71
2024/04/09 10:09:42;;;;;;;0.50;0.50;;;13.00;99.90;;;;;;5291371;26;20558;-71
2024/04/09 10:12:18;;;;;;;0.53;0.50;;;13.20;99.90;;;;;;5317170;26;20535;-70
2024/04/09 10:14:44;;;;;;;1.13;0.63;;;13.10;99.90;;;;;;5280017;26;20558;-69
2024/04/09 10:17:11;;;;;;;0.80;0.80;;;13.00;99.90;;;;;;5289880;26;20502;-71
2024/04/09 10:19:37;;;;;;;0.60;0.50;;;13.00;99.90;;;;;;5254490;26;20264;-71
2024/04/09 10:22:03;;;;;;;0.93;0.90;;;13.20;99.90;;;;;;5250308;26;20543;-72
2024/04/09 10:24:36;;;;;;;3.13;0.97;;;13.10;99.90;;;;;;5289435;26;20495;-75
2024/04/09 10:27:04;;;;;;;1.63;0.80;;;13.20;99.90;;;;;;5291168;26;20758;-76
2024/04/09 10:29:29;;;;;;;0.83;0.83;;;13.30;99.90;;;;;;5292915;26;20933;-74
2024/04/09 10:31:55;;;;;;;5.13;0.87;;;13.20;99.90;;;;;;5288685;26;20503;-75
2024/04/09 10:34:27;;;;;;;1.07;0.90;;;13.10;99.90;;;;;;5287205;26;20320;-74
2024/04/09 10:36:56;;;;;;;2.90;1.73;;;13.00;99.90;;;;;;5258543;26;20837;-75
2024/04/09 10:39:24;;;;;;;3.70;1.27;;;12.80;99.90;;;;;;5291349;26;20555;-75
2024/04/09 10:41:57;;;;;;;1.20;0.80;;;12.60;99.90;;;;;;5290707;26;20498;-76
2024/04/09 10:44:23;;;;;;;2.47;1.10;;;12.80;99.90;;;;;;5290488;26;20583;-73
2024/04/09 10:46:49;;;;;;;2.20;0.90;;;12.80;99.90;;;;;;5298972;26;20550;-76
2024/04/09 10:49:17;;;;;;;1.53;0.83;;;12.70;99.90;;;;;;5299468;26;20491;-74
2024/04/09 10:51:43;;;;;;;1.97;0.67;;;12.70;99.90;;;;;;5267238;26;20299;-74
2024/04/09 10:54:13;;;;;;;1.10;0.77;;;12.40;99.90;;;;;;5290030;26;20592;-74
2024/04/09 10:56:38;;;;;;;1.87;1.00;;;12.30;99.90;;;;;;5294266;26;20491;-74
2024/04/09 10:59:23;;;;;;;1.83;0.87;;;12.30;99.90;;;;;;5270915;26;20614;-74
2024/04/09 11:01:50;;;;;;;1.67;0.90;;;12.20;99.90;;;;;;5293204;26;20808;-75
2024/04/09 11:04:18;;;;;;;2.27;0.80;;;12.30;99.90;;;;;;5273944;26;20587;-76
2024/04/09 11:06:44;;;;;;;0.97;0.73;;;12.30;99.90;;;;;;5294392;26;21100;-75
2024/04/09 11:09:11;;;;;;;3.53;1.63;;;12.60;99.90;;;;;;5298517;26;20495;-76
2024/04/09 11:11:40;;;;;;;2.00;1.10;;;12.40;99.90;;;;;;5294805;26;20373;-72
2024/04/09 11:14:07;;;;;;;4.97;1.10;;;12.20;99.90;;;;;;5293981;26;20595;-74
2024/04/09 11:16:33;;;;;;;0.97;0.97;;;12.20;99.90;;;;;;5292255;26;20483;-76
2024/04/09 11:18:59;;;;;;;3.53;1.83;;;12.30;99.90;;;;;;5312152;26;20483;-74
2024/04/09 11:21:30;;;;;;;4.50;2.10;;;12.10;99.90;;;;;;5287403;26;20284;-74
2024/04/09 11:23:56;;;;;;;4.73;4.30;;;12.20;99.90;;;;;;5282035;26;20840;-74
2024/04/09 11:26:22;;;;;;;7.20;6.50;;;12.10;99.90;;;;;;5290483;26;20599;-73
2024/04/09 11:28:50;;;;;;;5.23;4.73;;;12.10;99.90;;;;;;5290692;26;20594;-76
2024/04/09 11:31:22;;;;;;;3.20;2.90;;;12.10;99.90;;;;;;5295097;26;20551;-76
2024/04/09 11:33:49;;;;;;;2.93;1.97;;;12.00;99.90;;;;;;5291984;26;20502;-74
2024/04/09 11:36:15;;;;;;;4.10;3.03;;;12.10;99.90;;;;;;5291916;26;20546;-75
2024/04/09 11:38:41;;;;;;;2.90;2.30;;;12.10;99.90;;;;;;5287087;26;21126;-76
2024/04/09 11:41:07;;;;;;;2.70;2.50;;;12.30;99.90;;;;;;5297186;26;20743;-75
2024/04/09 11:43:33;;;;;;;2.07;1.73;;;12.30;99.90;;;;;;5298029;26;20474;-76
2024/04/09 11:46:00;;;;;;;1.87;1.70;;;12.10;99.90;;;;;;5292153;26;20568;-74
2024/04/09 11:48:26;;;;;;;32.10;17.87;;;12.20;99.90;;;;;;5290775;26;20284;-78
2024/04/09 11:50:52;;;;;;;8.80;6.43;;;12.20;99.90;;;;;;5261812;26;20605;-77
2024/04/09 11:53:18;;;;;;;3.30;2.63;;;12.20;99.90;;;;;;5293574;26;20268;-74
2024/04/09 11:55:44;;;;;;;3.07;2.13;;;12.20;99.90;;;;;;5282500;26;20609;-74
2024/04/09 11:58:10;;;;;;;3.60;1.43;;;12.50;99.90;;;;;;5293216;26;20499;-75
2024/04/09 12:00:36;;;;;;;3.43;1.20;;;12.40;99.90;;;;;;5292697;26;20260;-75
2024/04/09 12:03:02;;;;;;;1.97;1.30;;;12.10;99.90;;;;;;5290246;26;20335;-76
2024/04/09 12:05:28;;;;;;;2.80;1.00;;;12.10;99.90;;;;;;5288036;26;20257;-73
2024/04/09 12:07:54;;;;;;;0.83;0.83;;;12.20;99.90;;;;;;5289522;26;21164;-75
2024/04/09 12:10:22;;;;;;;2.27;1.13;;;12.40;99.90;;;;;;5296185;26;20268;-77
2024/04/09 12:12:48;;;;;;;3.23;0.80;;;12.60;99.90;;;;;;5288900;26;20362;-74
2024/04/09 12:15:14;;;;;;;6.70;1.37;;;12.70;99.90;;;;;;5294294;26;20494;-74
2024/04/09 12:17:41;;;;;;;2.87;1.30;;;12.40;99.90;;;;;;5292494;26;20507;-76
2024/04/09 12:20:07;;;;;;;1.93;1.70;;;12.50;99.90;;;;;;5294137;26;20895;-73
2024/04/09 12:22:34;;;;;;;3.30;1.80;;;12.30;99.90;;;;;;5290962;26;20618;-77
2024/04/09 12:25:00;;;;;;;1.10;1.10;;;12.50;99.90;;;;;;5291973;26;20562;-76
2024/04/09 12:27:26;;;;;;;4.80;1.27;;;12.40;99.90;;;;;;5294107;26;20645;-75
2024/04/09 12:29:52;;;;;;;1.70;1.60;;;12.30;99.90;;;;;;5317738;26;20471;-75
2024/04/09 12:32:18;;;;;;;3.87;1.23;;;12.30;99.90;;;;;;5294157;26;20272;-75
2024/04/09 12:34:44;;;;;;;1.60;1.27;;;12.40;99.90;;;;;;5291391;26;20506;-76
2024/04/09 12:37:10;;;;;;;0.93;0.87;;;12.60;99.90;;;;;;5288515;26;20266;-78
2024/04/09 12:39:37;;;;;;;11.70;1.57;;;12.70;99.90;;;;;;5293518;26;20483;-74
2024/04/09 12:42:02;;;;;;;1.33;1.10;;;12.60;99.90;;;;;;5286364;26;20260;-75
2024/04/09 12:44:29;;;;;;;1.70;1.50;;;12.80;99.90;;;;;;5287381;26;20946;-75